Time;durP1;ratioP1;P1;durP2;ratioP2;P2;SDS_P1;SDS_P2;PMS_P1;PMS_P2;Temp;Humidity;BMP_temperature;BMP_pressure;BME280_temperature;BME280_humidity;BME280_pressure;Samples;Min_cycle;Max_cycle;Signal;HPM_P1;HPM_P2
2022/10/31 05:20:49;;;;;;;16.00;14.40;;;16.70;99.90;;;;;;4593762;19;20010;-26
2022/10/31 05:22:21;;;;;;;17.02;15.02;;;16.70;99.90;;;;;;4595183;19;20476;-26
2022/10/31 05:23:54;;;;;;;17.67;15.00;;;16.70;99.90;;;;;;4594551;19;20503;-27
2022/10/31 05:25:27;;;;;;;16.10;14.40;;;16.70;99.90;;;;;;4593364;19;20007;-26
2022/10/31 05:26:59;;;;;;;16.30;14.60;;;16.70;99.90;;;;;;4591558;19;20013;-26
2022/10/31 05:28:32;;;;;;;17.65;15.75;;;16.70;99.90;;;;;;4592599;19;20015;-26
2022/10/31 05:30:05;;;;;;;16.08;14.43;;;16.70;99.90;;;;;;4592847;19;20010;-27
2022/10/31 05:31:38;;;;;;;17.63;15.82;;;16.70;99.90;;;;;;4593348;19;20341;-26
2022/10/31 05:33:11;;;;;;;16.15;14.55;;;16.70;99.90;;;;;;4592347;19;20096;-27
2022/10/31 05:34:41;;;;;;;15.90;14.13;;;16.70;99.90;;;;;;4592850;19;20026;-26
2022/10/31 05:36:12;;;;;;;15.88;14.20;;;16.70;99.90;;;;;;4592967;19;20086;-26
2022/10/31 05:37:45;;;;;;;16.75;15.07;;;16.70;99.90;;;;;;4592874;19;20472;-26
2022/10/31 05:39:16;;;;;;;;;;;16.70;99.90;;;;;;4595141;19;20010;-26
2022/10/31 05:40:47;;;;;;;14.63;13.13;;;16.70;99.90;;;;;;4591476;19;19971;-27
2022/10/31 05:42:18;;;;;;;15.68;14.05;;;16.80;99.90;;;;;;4592335;19;20010;-27
2022/10/31 05:43:50;;;;;;;15.43;13.85;;;16.80;99.90;;;;;;4592135;19;20480;-27
2022/10/31 05:45:22;;;;;;;15.40;13.80;;;16.90;99.90;;;;;;4592120;19;20082;-26
2022/10/31 05:46:53;;;;;;;15.73;14.18;;;16.90;99.90;;;;;;4590566;19;20011;-27
2022/10/31 05:48:24;;;;;;;15.50;14.00;;;17.00;99.90;;;;;;4591028;19;20031;-27
2022/10/31 05:49:55;;;;;;;15.75;14.13;;;17.00;99.90;;;;;;4590622;19;20007;-27
2022/10/31 05:51:27;;;;;;;16.20;14.50;;;17.00;99.90;;;;;;4590861;19;20097;-27
2022/10/31 05:53:02;;;;;;;16.33;14.65;;;17.00;99.90;;;;;;4591113;19;20018;-26
2022/10/31 05:54:33;;;;;;;17.08;15.23;;;17.00;99.90;;;;;;4590983;19;20099;-26
2022/10/31 05:56:05;;;;;;;16.60;14.90;;;17.10;99.90;;;;;;4590680;19;20018;-27
2022/10/31 05:57:37;;;;;;;16.10;14.40;;;17.10;99.90;;;;;;4589272;19;20541;-27
2022/10/31 05:59:08;;;;;;;16.60;14.90;;;17.10;99.90;;;;;;4590213;19;20002;-26
2022/10/31 06:00:39;;;;;;;16.40;14.73;;;17.00;99.90;;;;;;4593345;19;20019;-27
2022/10/31 06:02:11;;;;;;;;;;;17.10;99.90;;;;;;4591837;19;20071;-27
2022/10/31 06:33:42;;;;;;;20.95;18.80;;;17.20;99.90;;;;;;4589519;19;20353;-27
2022/10/31 06:35:14;;;;;;;19.45;17.50;;;17.30;99.90;;;;;;4591455;19;20070;-27
2022/10/31 06:36:46;;;;;;;19.35;17.35;;;17.30;99.90;;;;;;4591283;19;20039;-27
2022/10/31 06:38:17;;;;;;;17.88;15.95;;;17.30;99.90;;;;;;4590617;19;20026;-27
2022/10/31 06:39:50;;;;;;;17.25;15.45;;;17.30;99.90;;;;;;4590626;19;20400;-27
2022/10/31 06:41:21;;;;;;;16.48;14.77;;;17.30;99.90;;;;;;4591540;19;20018;-27
2022/10/31 06:42:59;;;;;;;17.50;14.68;;;17.30;99.90;;;;;;4591548;19;20459;-27
2022/10/31 06:44:33;;;;;;;18.33;15.60;;;17.40;99.90;;;;;;4589298;19;20015;-27
2022/10/31 06:46:06;;;;;;;15.48;13.80;;;17.40;99.90;;;;;;4590520;19;20025;-27
2022/10/31 06:47:40;;;;;;;15.80;14.10;;;17.40;99.90;;;;;;4589968;19;20037;-27
2022/10/31 06:49:12;;;;;;;14.70;13.20;;;17.40;99.90;;;;;;4588978;19;20007;-27
2022/10/31 06:50:44;;;;;;;14.93;13.20;;;17.40;99.90;;;;;;4590777;19;20014;-27
2022/10/31 06:52:18;;;;;;;16.02;13.80;;;17.40;99.90;;;;;;4589733;19;20011;-27
2022/10/31 06:53:49;;;;;;;16.70;14.55;;;17.40;99.90;;;;;;4590516;19;20015;-27
2022/10/31 06:55:22;;;;;;;14.93;13.32;;;17.40;99.90;;;;;;4591587;19;20091;-26
2022/10/31 06:56:53;;;;;;;17.20;12.82;;;17.40;99.90;;;;;;4591497;19;20036;-27
2022/10/31 06:58:26;;;;;;;16.05;14.00;;;17.40;99.90;;;;;;4590834;19;20018;-27
2022/10/31 06:59:58;;;;;;;15.68;13.20;;;17.40;99.90;;;;;;4590942;19;20480;-27
2022/10/31 07:01:30;;;;;;;17.33;13.85;;;17.40;99.90;;;;;;4591254;19;20086;-27
2022/10/31 07:03:06;;;;;;;16.15;13.57;;;17.40;99.90;;;;;;4591499;19;20013;-27
2022/10/31 07:04:37;;;;;;;17.95;14.15;;;17.50;99.90;;;;;;4589004;19;20036;-27
2022/10/31 07:06:10;;;;;;;15.65;13.38;;;17.50;99.90;;;;;;4589922;19;20388;-26
2022/10/31 07:07:42;;;;;;;15.55;13.50;;;17.60;99.90;;;;;;4590433;19;20377;-27
2022/10/31 08:40:27;;;;;;;22.50;18.02;;;17.10;99.90;;;;;;4584464;19;20006;-27
2022/10/31 09:26:00;;;;;;;15.82;13.43;;;17.00;99.90;;;;;;4592653;19;20017;-27
2022/10/31 09:27:31;;;;;;;18.15;13.95;;;17.00;99.90;;;;;;4591197;19;20015;-27
2022/10/31 09:29:02;;;;;;;17.90;13.98;;;17.00;99.90;;;;;;4592803;19;20058;-27
2022/10/31 09:30:34;;;;;;;16.25;13.90;;;17.00;99.90;;;;;;4592435;19;20103;-27
2022/10/31 09:32:11;;;;;;;16.02;13.63;;;17.00;99.90;;;;;;4592446;19;20338;-27
2022/10/31 09:33:44;;;;;;;17.38;14.35;;;16.90;99.90;;;;;;4592903;19;20018;-27
2022/10/31 09:35:18;;;;;;;16.55;14.82;;;17.00;99.90;;;;;;4593232;19;20007;-27
2022/10/31 09:36:51;;;;;;;15.90;14.20;;;17.00;99.90;;;;;;4591287;19;20484;-27
2022/10/31 09:38:23;;;;;;;16.35;14.65;;;17.00;99.90;;;;;;4590748;19;20010;-27
2022/10/31 09:39:54;;;;;;;17.58;14.63;;;17.00;99.90;;;;;;4592674;19;20014;-27
2022/10/31 09:41:27;;;;;;;15.30;13.68;;;17.00;99.90;;;;;;4591654;19;20018;-27
2022/10/31 09:43:17;;;;;;;15.98;14.25;;;17.00;99.90;;;;;;4591959;19;20010;-27
2022/10/31 09:44:52;;;;;;;18.10;15.85;;;16.90;99.90;;;;;;4591215;19;20015;-27
2022/10/31 09:46:53;;;;;;;18.40;15.30;;;16.90;99.90;;;;;;4592802;19;20014;-27
2022/10/31 09:48:28;;;;;;;17.00;15.23;;;16.90;99.90;;;;;;4592142;19;20018;-27
2022/10/31 09:50:26;;;;;;;18.13;15.60;;;17.00;99.90;;;;;;4591237;19;20002;-27
2022/10/31 09:52:12;;;;;;;23.20;17.20;;;16.90;99.90;;;;;;4592297;19;20014;-27
2022/10/31 09:54:57;;;;;;;31.42;19.65;;;17.00;99.90;;;;;;4591119;19;20017;-27
2022/10/31 09:56:30;;;;;;;27.67;18.98;;;16.90;99.90;;;;;;4589740;19;20077;-27
2022/10/31 09:58:03;;;;;;;20.42;16.95;;;16.90;99.90;;;;;;4587248;19;20356;-27
2022/10/31 09:59:37;;;;;;;19.70;16.02;;;16.90;99.90;;;;;;4589812;19;20037;-27
2022/10/31 10:01:15;;;;;;;20.10;16.33;;;16.90;99.90;;;;;;4589736;19;20014;-27
2022/10/31 10:03:05;;;;;;;18.50;15.80;;;17.00;99.90;;;;;;4589925;19;20014;-27
2022/10/31 10:04:39;;;;;;;17.30;15.50;;;17.10;99.90;;;;;;4588791;19;20015;-27
2022/10/31 10:06:17;;;;;;;21.27;16.50;;;17.10;99.90;;;;;;4589568;19;20010;-27
2022/10/31 10:08:03;;;;;;;17.60;14.88;;;17.10;99.90;;;;;;4589660;19;20504;-27
2022/10/31 10:09:36;;;;;;;15.52;13.90;;;17.20;99.90;;;;;;4589699;19;20574;-27
2022/10/31 10:11:13;;;;;;;16.25;14.45;;;17.30;99.90;;;;;;4589523;19;20374;-27
2022/10/31 10:13:10;;;;;;;17.95;16.08;;;17.30;99.90;;;;;;4590483;19;20032;-27
2022/10/31 10:14:55;;;;;;;17.20;14.63;;;17.40;99.90;;;;;;4590095;19;20458;-27
2022/10/31 10:16:46;;;;;;;19.45;15.70;;;17.40;99.90;;;;;;4589505;19;20433;-27
2022/10/31 10:18:40;;;;;;;18.58;15.77;;;17.30;99.90;;;;;;4589618;19;20013;-27
2022/10/31 10:20:26;;;;;;;17.05;14.55;;;17.30;99.90;;;;;;4589230;19;20018;-27
2022/10/31 10:22:15;;;;;;;18.58;16.17;;;17.30;99.90;;;;;;4589728;19;20014;-27
2022/10/31 10:23:55;;;;;;;21.90;18.83;;;17.30;99.90;;;;;;4589271;19;20015;-27
2022/10/31 12:14:13;;;;;;;25.25;22.48;;;17.00;99.90;;;;;;4591262;19;20010;-27
2022/10/31 12:15:59;;;;;;;29.50;25.05;;;17.00;99.90;;;;;;4590077;19;20022;-27
2022/10/31 12:17:41;;;;;;;27.85;23.92;;;17.00;99.90;;;;;;4588284;19;20017;-27
2022/10/31 12:19:36;;;;;;;29.70;25.85;;;17.00;99.90;;;;;;4589570;19;20468;-27
2022/10/31 12:21:16;;;;;;;31.08;26.75;;;17.00;99.90;;;;;;4589344;19;20357;-27
2022/10/31 12:23:00;;;;;;;28.80;25.17;;;17.00;99.90;;;;;;4592232;19;20011;-27
2022/10/31 12:24:40;;;;;;;29.55;23.80;;;17.00;99.90;;;;;;4591074;19;20018;-27
2022/10/31 12:26:34;;;;;;;28.70;24.67;;;17.00;99.90;;;;;;4592511;19;20049;-27
2022/10/31 12:28:28;;;;;;;28.98;25.63;;;17.00;99.90;;;;;;4591744;19;20010;-27
2022/10/31 12:30:15;;;;;;;28.20;24.52;;;17.00;99.90;;;;;;4591759;19;20120;-27
2022/10/31 12:32:00;;;;;;;29.58;26.35;;;17.00;99.90;;;;;;4591622;19;20018;-27
2022/10/31 12:33:47;;;;;;;31.35;26.85;;;17.00;99.90;;;;;;4591697;19;20024;-27
2022/10/31 12:35:30;;;;;;;30.98;27.52;;;17.00;99.90;;;;;;4591912;19;20595;-27
2022/10/31 12:37:17;;;;;;;33.50;29.08;;;17.00;99.90;;;;;;4591714;19;20492;-27
2022/10/31 12:39:20;;;;;;;35.03;27.73;;;17.00;99.90;;;;;;4591406;19;20010;-27
2022/10/31 12:41:14;;;;;;;29.50;26.25;;;17.00;99.90;;;;;;4591979;19;20010;-27
2022/10/31 12:43:06;;;;;;;28.77;25.50;;;17.00;99.90;;;;;;4591498;19;20447;-27
2022/10/31 12:45:04;;;;;;;26.60;23.17;;;17.00;99.90;;;;;;4590600;19;20011;-27
2022/10/31 12:46:55;;;;;;;25.70;22.58;;;17.00;99.90;;;;;;4591197;19;20094;-27
2022/10/31 12:49:11;;;;;;;27.70;24.75;;;16.90;99.90;;;;;;4590915;19;20003;-27
2022/10/31 12:51:17;;;;;;;27.35;23.63;;;16.90;99.90;;;;;;4590779;19;20014;-27
2022/10/31 12:52:57;;;;;;;28.20;24.83;;;16.90;99.90;;;;;;4590657;19;20447;-27
2022/10/31 12:54:33;;;;;;;29.30;24.23;;;16.90;99.90;;;;;;4591070;19;20492;-27
2022/10/31 12:56:46;;;;;;;29.55;25.00;;;16.90;99.90;;;;;;4590998;19;20075;-27
2022/10/31 12:58:22;;;;;;;29.70;26.52;;;16.90;99.90;;;;;;4590991;19;20032;-27
2022/10/31 12:59:57;;;;;;;32.38;28.98;;;16.80;99.90;;;;;;4590683;19;20010;-27
2022/10/31 13:01:35;;;;;;;31.63;27.85;;;16.90;99.90;;;;;;4591001;19;20011;-27
2022/10/31 13:03:28;;;;;;;29.08;26.02;;;16.90;99.90;;;;;;4590800;19;20082;-27
2022/10/31 13:05:26;;;;;;;31.50;28.15;;;16.90;99.90;;;;;;4588827;19;20007;-27
2022/10/31 13:07:00;;;;;;;31.30;28.00;;;16.90;99.90;;;;;;4590935;19;20117;-27
2022/10/31 13:08:43;;;;;;;34.67;30.13;;;16.90;99.90;;;;;;4591060;19;20050;-27
2022/10/31 13:10:59;;;;;;;38.88;32.90;;;16.90;99.90;;;;;;4590413;19;20381;-27
2022/10/31 13:12:33;;;;;;;41.88;35.75;;;16.90;99.90;;;;;;4588914;19;20030;-27
2022/10/31 13:15:52;;;;;;;40.38;33.47;;;16.80;99.90;;;;;;4591112;19;20464;-27
2022/10/31 13:17:36;;;;;;;37.28;31.65;;;16.80;99.90;;;;;;4590563;19;20014;-27
2022/10/31 13:19:15;;;;;;;38.08;29.08;;;16.80;99.90;;;;;;4590675;19;20040;-27
2022/10/31 13:20:46;;;;;;;33.85;28.27;;;16.80;99.90;;;;;;4590231;19;20014;-27
2022/10/31 13:22:19;;;;;;;33.58;29.52;;;16.80;99.90;;;;;;4591053;19;20003;-27
2022/10/31 13:23:51;;;;;;;35.63;30.02;;;16.80;99.90;;;;;;4590268;19;20014;-27
2022/10/31 13:25:37;;;;;;;34.47;29.33;;;16.80;99.90;;;;;;4588674;19;20021;-27
2022/10/31 13:27:23;;;;;;;34.00;30.00;;;16.80;99.90;;;;;;4590724;19;20097;-27
2022/10/31 13:29:05;;;;;;;35.33;29.65;;;16.80;99.90;;;;;;4590640;19;20327;-27
2022/10/31 13:30:39;;;;;;;34.97;29.27;;;16.80;99.90;;;;;;4590748;19;20006;-27
2022/10/31 13:32:10;;;;;;;37.05;30.75;;;16.80;99.90;;;;;;4589552;19;20010;-27
2022/10/31 13:33:57;;;;;;;35.80;30.25;;;16.90;99.90;;;;;;4590452;19;20011;-27
2022/10/31 13:35:46;;;;;;;34.38;30.45;;;16.90;99.90;;;;;;4588108;19;20085;-27
2022/10/31 13:37:32;;;;;;;36.47;31.45;;;16.90;99.90;;;;;;4589925;19;20023;-27
2022/10/31 13:39:21;;;;;;;36.97;29.75;;;16.90;99.90;;;;;;4591140;19;20010;-27
2022/10/31 13:40:57;;;;;;;36.33;29.58;;;16.90;99.90;;;;;;4591140;19;20014;-27
2022/10/31 13:42:46;;;;;;;33.08;27.92;;;16.90;99.90;;;;;;4589384;19;20022;-27
2022/10/31 13:44:23;;;;;;;33.08;27.75;;;16.90;99.90;;;;;;4590552;19;20607;-27
2022/10/31 13:45:55;;;;;;;33.53;27.63;;;16.90;99.90;;;;;;4587831;19;20413;-27
2022/10/31 13:47:27;;;;;;;;;;;16.90;99.90;;;;;;4592386;19;20006;-27
2022/10/31 13:48:59;;;;;;;35.65;28.20;;;16.90;99.90;;;;;;4588968;19;20311;-27
2022/10/31 13:50:31;;;;;;;32.75;28.05;;;16.90;99.90;;;;;;4591739;19;20495;-27
2022/10/31 13:52:09;;;;;;;34.47;29.75;;;16.90;99.90;;;;;;4590821;19;20041;-27
2022/10/31 13:53:53;;;;;;;33.92;28.95;;;16.90;99.90;;;;;;4590759;19;20507;-27
2022/10/31 13:55:45;;;;;;;31.85;26.63;;;16.90;99.90;;;;;;4592681;19;20021;-27
2022/10/31 13:57:22;;;;;;;31.38;26.48;;;16.80;99.90;;;;;;4590906;19;20038;-27
2022/10/31 13:59:10;;;;;;;31.27;27.65;;;16.90;99.90;;;;;;4593394;19;20018;-27
2022/10/31 14:00:42;;;;;;;33.85;29.30;;;16.80;99.90;;;;;;4591129;19;20860;-27
2022/10/31 14:02:17;;;;;;;30.92;27.48;;;16.90;99.90;;;;;;4589684;19;20026;-27
2022/10/31 14:04:02;;;;;;;34.45;29.55;;;16.80;99.90;;;;;;4590926;19;20101;-27
2022/10/31 14:05:34;;;;;;;33.65;28.75;;;16.80;99.90;;;;;;4590935;19;20131;-27
2022/10/31 14:07:11;;;;;;;31.40;26.98;;;16.80;99.90;;;;;;4592213;19;20014;-27
2022/10/31 14:08:48;;;;;;;33.30;28.27;;;16.80;99.90;;;;;;4592626;19;20019;-27
2022/10/31 14:10:27;;;;;;;34.38;29.48;;;16.80;99.90;;;;;;4593653;19;20005;-27
2022/10/31 14:12:31;;;;;;;43.47;36.58;;;16.80;99.90;;;;;;4591711;19;20011;-27
2022/10/31 14:14:03;;;;;;;37.08;32.45;;;16.80;99.90;;;;;;4589383;19;20028;-27
2022/10/31 14:15:42;;;;;;;37.75;31.92;;;16.80;99.90;;;;;;4589213;19;20078;-27
2022/10/31 15:44:44;;;;;;;49.37;43.97;;;14.70;99.90;;;;;;4565657;19;20035;-26
2022/10/31 15:46:15;;;;;;;49.03;43.95;;;14.70;99.90;;;;;;4587570;19;20041;-26
2022/10/31 15:48:38;;;;;;;39.13;34.72;;;14.70;99.90;;;;;;4588406;19;20015;-26
2022/10/31 15:50:34;;;;;;;44.03;36.88;;;14.70;99.90;;;;;;4432037;19;3009933;-26
2022/10/31 15:52:28;;;;;;;41.80;36.45;;;14.70;99.90;;;;;;4586625;19;20013;-26
2022/10/31 15:54:00;;;;;;;43.63;38.20;;;14.70;99.90;;;;;;4588490;19;20045;-27
2022/10/31 15:55:33;;;;;;;46.58;38.70;;;14.70;99.90;;;;;;4591095;19;20007;-26
2022/10/31 15:57:06;;;;;;;41.40;35.63;;;14.70;99.90;;;;;;4591790;19;20013;-27
2022/10/31 15:58:46;;;;;;;40.33;35.47;;;14.70;99.90;;;;;;4592206;19;20014;-26
2022/10/31 16:00:23;;;;;;;45.95;39.38;;;14.70;99.90;;;;;;4591827;19;20019;-27
2022/10/31 16:02:08;;;;;;;46.53;36.80;;;14.70;99.90;;;;;;4593583;19;20476;-26
2022/10/31 16:03:40;;;;;;;40.87;35.47;;;14.70;99.90;;;;;;4592692;19;20015;-26
2022/10/31 16:05:19;;;;;;;41.00;35.92;;;14.70;99.90;;;;;;4592507;19;20010;-27
2022/10/31 16:07:18;;;;;;;39.83;34.90;;;14.70;99.90;;;;;;4594177;19;20006;-26
2022/10/31 16:08:49;;;;;;;50.58;45.15;;;14.70;99.90;;;;;;4591672;19;20562;-26
2022/10/31 16:10:25;;;;;;;45.92;37.80;;;14.70;99.90;;;;;;4591729;19;20069;-27
2022/10/31 16:11:57;;;;;;;42.10;36.20;;;14.60;99.90;;;;;;4593649;19;20011;-27
2022/10/31 16:13:31;;;;;;;40.60;34.17;;;14.60;99.90;;;;;;4594037;19;20104;-26
2022/10/31 16:15:04;;;;;;;47.80;42.55;;;14.60;99.90;;;;;;4594294;19;20078;-26
2022/10/31 16:16:52;;;;;;;45.40;39.90;;;14.60;99.90;;;;;;4593940;19;20017;-26
2022/10/31 16:18:24;;;;;;;40.50;34.03;;;14.60;99.90;;;;;;4593554;19;20007;-26
2022/10/31 16:20:04;;;;;;;43.73;37.27;;;14.60;99.90;;;;;;4593782;19;20006;-26
2022/10/31 16:21:36;;;;;;;44.17;39.40;;;14.60;99.90;;;;;;4594189;19;20016;-26
2022/10/31 16:23:12;;;;;;;62.22;55.53;;;14.70;99.90;;;;;;4591454;19;20114;-26
2022/10/31 16:24:56;;;;;;;43.10;36.92;;;14.60;99.90;;;;;;4590669;19;20019;-26
2022/10/31 16:26:29;;;;;;;48.08;42.78;;;14.70;99.90;;;;;;4591751;19;20022;-26
2022/10/31 16:28:21;;;;;;;44.25;38.88;;;14.70;99.90;;;;;;4592004;19;20077;-27
2022/10/31 16:29:52;;;;;;;38.60;32.72;;;14.90;99.90;;;;;;4593578;19;20357;-27
2022/10/31 16:31:41;;;;;;;38.78;32.30;;;15.20;99.90;;;;;;4593454;19;20437;-26
2022/10/31 16:33:35;;;;;;;34.33;26.92;;;15.40;99.90;;;;;;4593145;19;20014;-27
2022/10/31 16:35:10;;;;;;;34.42;29.90;;;15.50;99.90;;;;;;4594474;19;20022;-27
2022/10/31 16:36:41;;;;;;;34.85;29.23;;;15.70;99.90;;;;;;4595580;19;20002;-27
2022/10/31 16:38:13;;;;;;;32.10;27.50;;;15.80;99.90;;;;;;4592950;19;20066;-27
2022/10/31 16:39:47;;;;;;;35.33;29.02;;;15.80;99.90;;;;;;4593305;19;20007;-27
2022/10/31 16:41:20;;;;;;;34.67;28.85;;;15.80;99.90;;;;;;4592360;19;20464;-27
2022/10/31 16:42:51;;;;;;;33.45;28.98;;;15.90;99.90;;;;;;4592398;19;20025;-27
2022/10/31 16:44:25;;;;;;;33.70;27.00;;;16.00;99.90;;;;;;4592451;19;20027;-27
2022/10/31 16:45:56;;;;;;;32.88;25.42;;;16.00;99.90;;;;;;4590189;19;20408;-27
2022/10/31 16:51:18;;;;;;;33.00;28.13;;;16.10;99.90;;;;;;4594531;19;20391;-26
2022/10/31 16:52:50;;;;;;;38.58;33.88;;;16.10;99.90;;;;;;4595370;19;20021;-26
2022/10/31 16:54:21;;;;;;;35.40;31.58;;;16.20;99.90;;;;;;4591268;19;20018;-27
2022/10/31 16:55:54;;;;;;;36.78;32.78;;;16.20;99.90;;;;;;4593590;19;20410;-26
2022/10/31 16:57:29;;;;;;;34.15;28.65;;;16.20;99.90;;;;;;4592512;19;20011;-26
2022/10/31 16:59:04;;;;;;;30.33;25.13;;;16.20;99.90;;;;;;4593429;19;20014;-26
2022/10/31 17:00:35;;;;;;;32.60;27.48;;;16.30;99.90;;;;;;4592838;19;20030;-26
2022/10/31 17:02:08;;;;;;;33.03;26.95;;;16.30;99.90;;;;;;4593364;19;20021;-26
2022/10/31 17:03:39;;;;;;;34.83;30.45;;;16.40;99.90;;;;;;4592352;19;20002;-26
2022/10/31 17:05:13;;;;;;;38.97;32.75;;;16.30;99.90;;;;;;4592990;19;20354;-27
2022/10/31 17:06:44;;;;;;;39.17;32.53;;;16.30;99.90;;;;;;4591966;19;20026;-27
2022/10/31 17:08:15;;;;;;;36.40;30.52;;;16.40;99.90;;;;;;4592594;19;20010;-26
2022/10/31 17:09:46;;;;;;;38.72;34.10;;;16.40;99.90;;;;;;4594382;19;20087;-25
2022/10/31 17:11:20;;;;;;;49.53;44.03;;;16.40;99.90;;;;;;4593061;19;20081;-27
2022/10/31 17:12:51;;;;;;;47.38;40.17;;;16.40;99.90;;;;;;4591674;19;20006;-26
2022/10/31 17:14:22;;;;;;;41.33;34.67;;;16.40;99.90;;;;;;4591652;19;20124;-26
2022/10/31 17:15:54;;;;;;;43.97;35.55;;;16.40;99.90;;;;;;4593516;19;20011;-26
2022/10/31 17:17:26;;;;;;;48.30;37.92;;;16.40;99.90;;;;;;4592880;19;20011;-26
2022/10/31 17:18:57;;;;;;;55.30;43.45;;;16.40;99.90;;;;;;4592785;19;20030;-26
2022/10/31 17:20:30;;;;;;;45.10;36.42;;;16.40;99.90;;;;;;4591458;19;20018;-26
2022/10/31 17:22:01;;;;;;;;;;;16.50;99.90;;;;;;4592462;19;20039;-26
2022/10/31 17:23:32;;;;;;;48.97;35.42;;;16.50;99.90;;;;;;4592341;19;19977;-26
2022/10/31 17:53:49;;;;;;;39.40;31.92;;;16.60;99.90;;;;;;4590537;19;20015;-27
2022/10/31 17:55:20;;;;;;;36.88;30.15;;;16.60;99.90;;;;;;4590732;19;20043;-27
2022/10/31 17:56:53;;;;;;;34.85;28.33;;;16.60;99.90;;;;;;4591537;19;20017;-26
2022/10/31 17:58:25;;;;;;;35.38;28.30;;;16.60;99.90;;;;;;4591479;19;20033;-25
2022/10/31 17:59:57;;;;;;;30.88;25.05;;;16.60;99.90;;;;;;4588904;19;20107;-27
2022/10/31 18:01:28;;;;;;;32.70;27.13;;;16.70;99.90;;;;;;4590465;19;20489;-26
2022/10/31 18:03:01;;;;;;;29.63;25.35;;;16.70;99.90;;;;;;4590406;19;20018;-26
2022/10/31 18:04:34;;;;;;;32.85;25.38;;;16.80;99.90;;;;;;4589322;19;20014;-27
2022/10/31 18:06:06;;;;;;;31.15;26.55;;;16.90;99.90;;;;;;4591506;19;20011;-27
2022/10/31 18:07:38;;;;;;;30.73;26.20;;;16.90;99.90;;;;;;4589983;19;20468;-27
2022/10/31 18:09:10;;;;;;;36.38;28.48;;;17.00;99.90;;;;;;4590798;19;20018;-26
2022/10/31 18:10:42;;;;;;;41.28;31.35;;;17.00;99.90;;;;;;4591174;19;20011;-27
2022/10/31 18:12:15;;;;;;;63.33;39.83;;;17.00;99.90;;;;;;4588915;19;20350;-26
2022/10/31 18:13:46;;;;;;;50.10;35.03;;;17.10;99.90;;;;;;4590926;19;20039;-27
2022/10/31 18:15:19;;;;;;;39.85;30.50;;;17.10;99.90;;;;;;4591140;19;20019;-27
2022/10/31 18:16:50;;;;;;;33.45;26.55;;;17.10;99.90;;;;;;4590028;19;20445;-27
2022/10/31 18:18:21;;;;;;;37.60;29.77;;;17.20;99.90;;;;;;4587991;19;20083;-27
2022/10/31 18:19:52;;;;;;;41.78;32.03;;;17.20;99.90;;;;;;4590632;19;20077;-27
2022/10/31 18:21:25;;;;;;;57.90;41.33;;;17.20;99.90;;;;;;4591517;19;20066;-27
2022/10/31 18:22:56;;;;;;;55.72;43.95;;;17.30;99.90;;;;;;4591218;19;20002;-27
2022/10/31 18:24:27;;;;;;;49.13;39.65;;;17.30;99.90;;;;;;4590666;19;20018;-27
2022/10/31 18:25:58;;;;;;;42.45;34.55;;;17.40;99.90;;;;;;4591050;19;20022;-27
2022/10/31 18:27:30;;;;;;;43.95;36.22;;;17.40;99.90;;;;;;4590806;19;20342;-27
2022/10/31 18:29:02;;;;;;;;;;;17.40;99.90;;;;;;4591760;19;20003;-27
2022/10/31 18:30:38;;;;;;;38.17;29.77;;;17.40;99.90;;;;;;4591549;19;19915;-27
2022/10/31 18:32:10;;;;;;;35.10;28.50;;;17.50;99.90;;;;;;4591134;19;20014;-27
2022/10/31 18:33:41;;;;;;;30.45;26.77;;;17.50;99.90;;;;;;4591547;19;20361;-27
2022/10/31 18:35:12;;;;;;;30.25;25.95;;;17.50;99.90;;;;;;4591166;19;20026;-27
2022/10/31 18:36:44;;;;;;;32.25;25.95;;;17.50;99.90;;;;;;4591012;19;20018;-27
2022/10/31 18:38:15;;;;;;;30.40;25.88;;;17.50;99.90;;;;;;4591272;19;20353;-27
2022/10/31 18:39:46;;;;;;;34.00;27.55;;;17.50;99.90;;;;;;4590527;19;20006;-26
2022/10/31 18:41:18;;;;;;;34.30;29.38;;;17.50;99.90;;;;;;4591320;19;20002;-27
2022/10/31 18:42:49;;;;;;;38.55;29.40;;;17.50;99.90;;;;;;4590984;19;20026;-27
2022/10/31 18:44:20;;;;;;;36.03;28.92;;;17.50;99.90;;;;;;4590653;19;20022;-27
2022/10/31 18:45:51;;;;;;;45.78;33.88;;;17.50;99.90;;;;;;4590467;19;20306;-27
2022/10/31 18:47:22;;;;;;;45.50;33.50;;;17.40;99.90;;;;;;4590345;19;20039;-27
2022/10/31 18:48:54;;;;;;;41.97;32.40;;;17.40;99.90;;;;;;4589938;19;20018;-27
2022/10/31 18:50:26;;;;;;;40.72;33.58;;;17.40;99.90;;;;;;4590119;19;20027;-27
2022/10/31 18:52:00;;;;;;;37.42;32.50;;;17.40;99.90;;;;;;4590603;19;20018;-27
2022/10/31 18:55:18;;;;;;;36.15;32.17;;;17.40;99.90;;;;;;4589966;19;19994;-27
2022/10/31 18:56:50;;;;;;;33.58;28.23;;;17.30;99.90;;;;;;4590437;19;20033;-27
2022/10/31 18:58:27;;;;;;;33.40;27.05;;;17.30;99.90;;;;;;4591293;19;20015;-28
2022/10/31 18:59:58;;;;;;;29.85;26.02;;;17.30;99.90;;;;;;4590045;19;20003;-26
2022/10/31 19:01:29;;;;;;;27.92;24.00;;;17.30;99.90;;;;;;4590203;19;20029;-27
2022/10/31 19:03:01;;;;;;;;;;;17.30;99.90;;;;;;4590583;19;20014;-26
2022/10/31 19:04:32;;;;;;;29.40;23.88;;;17.20;99.90;;;;;;4590601;19;19926;-26
2022/10/31 19:06:04;;;;;;;29.17;24.60;;;17.20;99.90;;;;;;4591132;19;20021;-26
2022/10/31 19:07:35;;;;;;;29.67;25.50;;;17.20;99.90;;;;;;4589648;19;20406;-26
2022/10/31 19:09:09;;;;;;;32.45;26.65;;;17.20;99.90;;;;;;4589442;19;20468;-26
2022/10/31 19:10:40;;;;;;;33.28;28.65;;;17.20;99.90;;;;;;4589766;19;20014;-26
2022/10/31 19:12:13;;;;;;;36.33;30.77;;;17.20;99.90;;;;;;4589799;19;20011;-27
2022/10/31 19:13:44;;;;;;;36.03;31.40;;;17.10;99.90;;;;;;4588388;19;20015;-27
2022/10/31 19:15:16;;;;;;;40.53;34.25;;;17.10;99.90;;;;;;4587412;19;20014;-27
2022/10/31 19:38:25;;;;;;;36.95;28.80;;;17.00;99.90;;;;;;4589460;19;19991;-27
2022/10/31 19:39:56;;;;;;;50.95;36.00;;;17.00;99.90;;;;;;4589260;19;20018;-27
2022/10/31 19:41:27;;;;;;;53.92;39.83;;;17.00;99.90;;;;;;4588416;19;20018;-27
2022/10/31 19:42:59;;;;;;;41.53;30.95;;;16.90;99.90;;;;;;4587580;19;21242;-27
2022/10/31 19:44:32;;;;;;;27.20;22.92;;;17.00;99.90;;;;;;4586992;19;20025;-27
2022/10/31 19:46:03;;;;;;;27.17;22.52;;;16.90;99.90;;;;;;4588461;19;20014;-27
2022/10/31 19:50:03;;;;;;;28.02;23.10;;;16.90;99.90;;;;;;4588767;19;20010;-27
2022/10/31 19:51:35;;;;;;;34.28;28.10;;;16.90;99.90;;;;;;4588037;19;20014;-27
2022/10/31 19:53:07;;;;;;;32.55;27.75;;;16.90;99.90;;;;;;4587184;19;20021;-27
2022/10/31 19:56:24;;;;;;;32.28;26.10;;;16.90;99.90;;;;;;4589773;19;20361;-27
2022/10/31 19:57:56;;;;;;;32.05;26.35;;;16.90;99.90;;;;;;4587658;19;20011;-27
2022/10/31 19:59:28;;;;;;;29.85;26.48;;;16.90;99.90;;;;;;4589961;19;20536;-27
2022/10/31 20:00:59;;;;;;;32.25;27.17;;;16.90;99.90;;;;;;4587517;19;20013;-27
2022/10/31 20:02:30;;;;;;;36.17;29.40;;;16.90;99.90;;;;;;4589184;19;20029;-27
2022/10/31 20:04:01;;;;;;;31.35;26.80;;;16.90;99.90;;;;;;4589138;19;20489;-27
2022/10/31 20:05:32;;;;;;;30.42;25.85;;;16.90;99.90;;;;;;4583273;19;20011;-27
2022/10/31 20:07:03;;;;;;;30.58;24.08;;;17.00;99.90;;;;;;4588222;19;20018;-27
2022/10/31 20:08:35;;;;;;;28.58;24.75;;;17.00;99.90;;;;;;4589443;19;20095;-27
2022/10/31 20:10:07;;;;;;;30.98;25.70;;;17.00;99.90;;;;;;4588611;19;20015;-27
2022/10/31 20:11:39;;;;;;;29.45;25.10;;;17.00;99.90;;;;;;4588659;19;20006;-27
2022/10/31 20:13:10;;;;;;;28.25;24.13;;;17.00;99.90;;;;;;4588668;19;20019;-27
2022/10/31 20:14:42;;;;;;;27.15;22.90;;;17.00;99.90;;;;;;4590100;19;20504;-27
2022/10/31 20:16:14;;;;;;;27.30;20.85;;;17.00;99.90;;;;;;4589360;19;20019;-27
2022/10/31 20:17:46;;;;;;;25.98;20.98;;;17.00;99.90;;;;;;4588898;19;20026;-27
2022/10/31 20:19:16;;;;;;;27.10;21.13;;;17.00;99.90;;;;;;4588604;19;20066;-27
2022/10/31 20:20:48;;;;;;;25.40;20.90;;;17.00;99.90;;;;;;4589668;19;20007;-27
2022/10/31 20:22:19;;;;;;;27.35;21.92;;;17.00;99.90;;;;;;4588784;19;20047;-27
2022/10/31 20:23:57;;;;;;;26.73;21.55;;;17.00;99.90;;;;;;4588226;19;20334;-27
2022/10/31 20:25:32;;;;;;;27.80;21.25;;;17.00;99.90;;;;;;4586966;19;20018;-27
2022/10/31 20:27:04;;;;;;;29.52;22.23;;;17.00;99.90;;;;;;4588651;19;20014;-27
2022/10/31 20:28:35;;;;;;;26.20;21.25;;;17.00;99.90;;;;;;4587998;19;20023;-27
2022/10/31 20:30:07;;;;;;;27.98;21.52;;;17.00;99.90;;;;;;4589728;19;20026;-27
2022/10/31 20:31:38;;;;;;;28.85;24.17;;;17.00;99.90;;;;;;4589546;19;20020;-27
2022/10/31 20:33:10;;;;;;;42.75;35.63;;;17.00;99.90;;;;;;4586730;19;20051;-27
2022/10/31 20:34:41;;;;;;;;;;;17.00;99.90;;;;;;4588317;19;20011;-27